Time;durP1;ratioP1;P1;durP2;ratioP2;P2;SDS_P1;SDS_P2;PMS_P1;PMS_P2;Temp;Humidity;BMP_temperature;BMP_pressure;BME280_temperature;BME280_humidity;BME280_pressure;Samples;Min_cycle;Max_cycle;Signal;HPM_P1;HPM_P2
2023/09/05 00:00:23;;;;;;;3.03;1.80;;;;;;;16.56;100.00;102045.63;6300043;28;20056;-72
2023/09/05 00:03:24;;;;;;;3.60;2.30;;;;;;;16.49;100.00;102046.94;6299723;28;20153;-72
2023/09/05 00:06:27;;;;;;;3.88;2.38;;;;;;;16.41;100.00;102047.34;6299612;28;20048;-74
2023/09/05 00:09:29;;;;;;;2.28;1.63;;;;;;;16.39;100.00;102043.91;6299837;28;20049;-72
2023/09/05 00:12:30;;;;;;;6.00;2.65;;;;;;;16.35;100.00;102046.84;6299949;28;20056;-74
2023/09/05 00:15:31;;;;;;;5.28;2.80;;;;;;;16.30;100.00;102043.59;6299359;28;20052;-73
2023/09/05 00:18:33;;;;;;;4.07;2.10;;;;;;;16.27;100.00;102038.47;6299814;28;20357;-74
2023/09/05 00:21:35;;;;;;;3.28;1.92;;;;;;;16.19;100.00;102036.25;6299646;28;20074;-74
2023/09/05 00:24:38;;;;;;;7.03;2.58;;;;;;;16.26;100.00;102031.44;6299573;28;20053;-74
2023/09/05 00:27:40;;;;;;;6.25;2.08;;;;;;;16.21;100.00;102029.03;6299441;28;20135;-73
2023/09/05 00:30:41;;;;;;;3.45;1.92;;;;;;;16.20;100.00;102035.31;6299773;28;20048;-73
2023/09/05 00:33:44;;;;;;;4.00;1.92;;;;;;;16.11;100.00;102026.06;6298895;28;20049;-73
2023/09/05 00:36:48;;;;;;;3.13;2.30;;;;;;;16.09;100.00;102032.41;6284014;28;20391;-73
2023/09/05 00:39:49;;;;;;;4.05;1.90;;;;;;;16.10;100.00;102032.31;6296632;28;20052;-74
2023/09/05 00:42:51;;;;;;;3.20;2.10;;;;;;;16.02;100.00;102031.03;6285258;28;20435;-72
2023/09/05 00:45:56;;;;;;;4.18;2.00;;;;;;;16.06;100.00;102030.78;6285553;28;20044;-73
2023/09/05 00:49:02;;;;;;;2.83;2.00;;;;;;;16.04;100.00;102031.81;6290958;28;20057;-73
2023/09/05 00:52:06;;;;;;;6.85;2.35;;;;;;;15.92;100.00;102030.69;6291584;28;20052;-73
2023/09/05 00:55:09;;;;;;;4.40;1.88;;;;;;;15.97;100.00;102023.31;6300408;28;20045;-73
2023/09/05 00:58:11;;;;;;;3.30;1.98;;;;;;;15.93;100.00;102022.63;6303992;28;20048;-73
2023/09/05 01:01:12;;;;;;;3.78;2.20;;;;;;;15.90;100.00;102030.78;6295957;28;20048;-71
2023/09/05 01:04:14;;;;;;;3.00;1.92;;;;;;;15.88;100.00;102021.19;6295156;28;20052;-72
2023/09/05 01:07:30;;;;;;;2.78;2.05;;;;;;;15.93;100.00;102027.09;6303189;28;20470;-72
2023/09/05 01:10:42;;;;;;;5.18;1.85;;;;;;;15.91;100.00;102023.69;6303486;28;20052;-72
2023/09/05 01:13:44;;;;;;;4.15;2.30;;;;;;;15.82;100.00;102017.09;6288400;28;20205;-72
2023/09/05 01:16:46;;;;;;;5.20;2.15;;;;;;;15.79;100.00;102019.03;6303217;28;20048;-72
2023/09/05 01:19:50;;;;;;;4.53;2.30;;;;;;;15.75;100.00;102012.19;6303158;28;20056;-72
2023/09/05 01:23:01;;;;;;;3.40;2.13;;;;;;;15.70;100.00;102021.25;6303469;28;20113;-72
2023/09/05 01:26:04;;;;;;;3.25;1.98;;;;;;;15.73;100.00;102013.16;6302754;28;20048;-72
2023/09/05 01:29:06;;;;;;;5.90;2.00;;;;;;;15.83;100.00;102016.13;6303214;28;20455;-72
2023/09/05 01:32:09;;;;;;;3.47;1.90;;;;;;;15.77;100.00;102011.19;6302500;28;20048;-72
2023/09/05 01:35:11;;;;;;;3.17;2.00;;;;;;;15.77;100.00;102011.19;6302682;28;20048;-72
2023/09/05 01:38:13;;;;;;;5.78;2.17;;;;;;;15.81;100.00;102010.09;6302769;28;20052;-72
2023/09/05 01:41:16;;;;;;;3.67;1.88;;;;;;;15.84;100.00;102012.53;6295356;28;20131;-72
2023/09/05 01:44:17;;;;;;;3.28;2.13;;;;;;;15.87;100.00;102004.44;6294494;28;20048;-72
2023/09/05 01:47:19;;;;;;;5.78;2.13;;;;;;;15.83;100.00;102010.84;6302454;28;20056;-72
2023/09/05 01:50:20;;;;;;;4.13;1.98;;;;;;;15.89;100.00;102005.19;6302659;28;20044;-72
2023/09/05 01:53:23;;;;;;;5.72;2.38;;;;;;;15.90;100.00;102012.22;6293387;28;20056;-72
2023/09/05 01:56:26;;;;;;;5.07;1.77;;;;;;;15.87;100.00;102008.88;6301387;28;20041;-72
2023/09/05 01:59:27;;;;;;;2.90;2.10;;;;;;;15.87;100.00;102001.78;6302243;28;20052;-72
2023/09/05 02:02:29;;;;;;;4.45;2.47;;;;;;;15.81;100.00;102002.13;6302263;28;20048;-72
2023/09/05 02:05:30;;;;;;;2.15;1.92;;;;;;;15.71;100.00;101999.13;6301603;28;20344;-72
2023/09/05 02:08:33;;;;;;;3.53;2.17;;;;;;;15.69;100.00;101997.50;6302397;28;20048;-71
2023/09/05 02:11:36;;;;;;;6.40;2.05;;;;;;;15.56;100.00;102002.56;6302060;28;20056;-72
2023/09/05 02:14:37;;;;;;;3.97;2.25;;;;;;;15.61;100.00;101999.66;6301867;28;20048;-71
2023/09/05 02:17:39;;;;;;;3.10;1.92;;;;;;;15.60;100.00;101997.97;6301726;28;20049;-71
2023/09/05 02:20:41;;;;;;;5.47;2.10;;;;;;;15.60;100.00;102000.63;6302054;28;20056;-72
2023/09/05 02:23:43;;;;;;;5.90;2.38;;;;;;;15.60;100.00;101993.50;6301752;28;20052;-71
2023/09/05 02:26:46;;;;;;;4.15;2.30;;;;;;;15.57;100.00;102001.63;6301581;28;20052;-72
2023/09/05 02:29:49;;;;;;;3.65;1.85;;;;;;;15.56;100.00;101997.25;6301566;28;20067;-72
2023/09/05 02:32:51;;;;;;;4.05;2.17;;;;;;;15.48;100.00;101995.03;6301327;28;20059;-72
2023/09/05 02:35:52;;;;;;;3.90;2.65;;;;;;;15.42;100.00;101992.72;6292840;28;20041;-72
2023/09/05 02:38:54;;;;;;;2.97;2.13;;;;;;;15.34;100.00;101992.25;6296110;28;20104;-72
2023/09/05 02:41:57;;;;;;;4.05;1.85;;;;;;;15.33;100.00;101989.69;6298954;28;20045;-72
2023/09/05 02:44:58;;;;;;;4.25;2.50;;;;;;;15.30;100.00;101993.34;6287781;28;20044;-71
2023/09/05 02:47:59;;;;;;;6.57;2.25;;;;;;;15.26;100.00;101996.25;6295605;28;20444;-71
2023/09/05 02:51:02;;;;;;;3.17;2.03;;;;;;;15.28;100.00;101991.75;6291985;28;20060;-72
2023/09/05 02:54:04;;;;;;;4.07;2.28;;;;;;;15.28;100.00;101989.09;6301063;28;20055;-72
2023/09/05 02:57:06;;;;;;;3.28;2.10;;;;;;;15.24;100.00;101980.44;6300788;28;20041;-71
2023/09/05 03:00:09;;;;;;;5.47;2.00;;;;;;;15.27;100.00;101988.25;6300694;28;20068;-72
2023/09/05 03:03:10;;;;;;;3.75;2.22;;;;;;;15.23;100.00;101974.31;6301023;28;20049;-72
2023/09/05 03:06:13;;;;;;;3.05;2.08;;;;;;;15.27;100.00;101974.16;6299448;28;20048;-72
2023/09/05 03:09:14;;;;;;;5.43;2.75;;;;;;;15.25;100.00;101982.16;6300895;28;20059;-72
2023/09/05 03:12:17;;;;;;;4.55;2.33;;;;;;;15.23;100.00;101979.59;6300707;28;20076;-72
2023/09/05 03:15:20;;;;;;;3.90;2.42;;;;;;;15.25;100.00;101976.00;6300434;28;20052;-71
2023/09/05 03:18:21;;;;;;;3.47;2.35;;;;;;;15.24;100.00;101977.81;6300745;28;20099;-72
2023/09/05 03:21:23;;;;;;;5.80;2.17;;;;;;;15.22;100.00;101974.41;6300665;28;20048;-72
2023/09/05 03:24:24;;;;;;;5.07;2.97;;;;;;;15.21;100.00;101978.84;6288715;28;20056;-72
2023/09/05 03:27:27;;;;;;;3.08;1.85;;;;;;;15.19;100.00;101970.09;6299490;28;20049;-72
2023/09/05 03:30:28;;;;;;;2.30;1.85;;;;;;;15.17;100.00;101973.75;6300351;28;20063;-73
2023/09/05 03:33:30;;;;;;;5.20;2.28;;;;;;;15.18;100.00;101967.56;6300410;28;20052;-72
2023/09/05 03:36:32;;;;;;;3.60;2.28;;;;;;;15.18;100.00;101964.91;6300118;28;20040;-73
2023/09/05 03:39:34;;;;;;;2.95;1.80;;;;;;;15.19;100.00;101971.91;6300210;28;20057;-72
2023/09/05 03:42:36;;;;;;;3.88;1.88;;;;;;;15.21;100.00;101972.66;6300601;28;20052;-72
2023/09/05 03:45:38;;;;;;;4.00;2.08;;;;;;;15.18;100.00;101965.75;6299827;28;20044;-72
2023/09/05 03:48:39;;;;;;;4.90;2.45;;;;;;;15.13;100.00;101964.28;6300336;28;20056;-71
2023/09/05 03:51:40;;;;;;;4.40;3.15;;;;;;;15.12;100.00;101963.41;6300062;28;20048;-71
2023/09/05 03:54:42;;;;;;;6.75;3.90;;;;;;;15.09;100.00;101955.66;6300136;28;20059;-71
2023/09/05 03:57:44;;;;;;;5.60;2.63;;;;;;;15.04;100.00;101956.84;6299834;28;20051;-71
2023/09/05 04:00:46;;;;;;;10.35;2.78;;;;;;;15.05;100.00;101951.44;6300254;28;20045;-71
2023/09/05 04:03:47;;;;;;;7.13;2.30;;;;;;;15.04;100.00;101957.69;6300130;28;20059;-71
2023/09/05 04:06:49;;;;;;;4.07;2.25;;;;;;;15.03;100.00;101961.25;6299682;28;20728;-71
2023/09/05 04:09:50;;;;;;;4.32;2.20;;;;;;;15.01;100.00;101954.34;6299899;28;20433;-72
2023/09/05 04:12:53;;;;;;;2.80;1.63;;;;;;;15.01;100.00;101952.53;6299602;28;20348;-72
2023/09/05 04:15:55;;;;;;;4.53;1.73;;;;;;;15.00;100.00;101953.50;6299657;28;20040;-72
2023/09/05 04:18:56;;;;;;;4.03;2.03;;;;;;;14.95;100.00;101956.38;6304646;28;20048;-71
2023/09/05 04:21:58;;;;;;;3.05;2.17;;;;;;;14.93;100.00;101952.94;6304756;28;20045;-72
2023/09/05 04:24:59;;;;;;;3.83;2.78;;;;;;;14.90;100.00;101947.81;6304468;28;20056;-71
2023/09/05 04:28:02;;;;;;;3.85;2.17;;;;;;;14.91;100.00;101940.75;6304517;28;20044;-71
2023/09/05 04:31:04;;;;;;;4.22;2.00;;;;;;;14.88;100.00;101946.19;6304528;28;20567;-72
2023/09/05 04:34:06;;;;;;;4.50;2.63;;;;;;;14.87;100.00;101960.34;6304437;28;20052;-72
2023/09/05 04:37:07;;;;;;;4.60;2.70;;;;;;;14.84;100.00;101958.72;6291633;28;20419;-71
2023/09/05 04:40:09;;;;;;;4.45;2.42;;;;;;;14.82;100.00;101957.94;6299579;28;20053;-72
2023/09/05 04:43:12;;;;;;;5.22;2.17;;;;;;;14.80;100.00;101956.31;6292469;28;20040;-72
2023/09/05 04:46:14;;;;;;;4.18;2.38;;;;;;;14.81;100.00;101969.47;6303589;28;20464;-72
2023/09/05 04:49:15;;;;;;;3.15;2.47;;;;;;;14.82;100.00;101972.97;6292625;28;20363;-72
2023/09/05 04:52:17;;;;;;;4.65;2.30;;;;;;;14.82;100.00;101976.47;6301332;28;20071;-72
2023/09/05 04:55:18;;;;;;;4.47;2.72;;;;;;;14.81;100.00;101982.72;6303746;28;20053;-72
2023/09/05 04:58:21;;;;;;;3.97;2.20;;;;;;;14.81;100.00;101976.56;6303646;28;20049;-72
2023/09/05 05:01:22;;;;;;;4.40;2.10;;;;;;;14.83;100.00;101985.25;6292835;28;20068;-72
2023/09/05 05:04:24;;;;;;;5.82;2.40;;;;;;;14.83;100.00;101975.53;6293614;28;20060;-71
2023/09/05 05:07:25;;;;;;;4.40;2.30;;;;;;;14.83;100.00;101972.88;6303227;28;20044;-72
2023/09/05 05:10:27;;;;;;;3.70;1.95;;;;;;;14.84;100.00;101977.22;6303695;28;20056;-71
2023/09/05 05:13:29;;;;;;;8.48;2.60;;;;;;;14.85;100.00;101967.50;6287924;28;20058;-72
2023/09/05 05:16:31;;;;;;;4.63;2.25;;;;;;;14.84;100.00;101979.88;6277630;28;20045;-72
2023/09/05 05:19:32;;;;;;;6.28;2.38;;;;;;;14.86;100.00;101985.97;6270141;28;20052;-71
2023/09/05 05:22:34;;;;;;;6.35;2.50;;;;;;;14.88;100.00;101985.88;6265723;28;20050;-72
2023/09/05 05:25:37;;;;;;;4.82;2.60;;;;;;;14.89;100.00;101982.28;6269611;28;20045;-72
2023/09/05 05:28:41;;;;;;;4.45;2.03;;;;;;;14.91;100.00;101983.94;6266137;28;20350;-71
2023/09/05 05:31:43;;;;;;;2.53;1.80;;;;;;;14.94;100.00;101986.44;6272656;28;20323;-72
2023/09/05 05:34:48;;;;;;;4.45;2.42;;;;;;;14.99;100.00;101988.84;6261288;28;20045;-72
2023/09/05 05:37:49;;;;;;;3.75;2.20;;;;;;;15.02;100.00;101993.97;6266072;28;20059;-72
2023/09/05 05:40:51;;;;;;;3.75;2.35;;;;;;;15.07;100.00;102001.66;6260915;28;20050;-72
2023/09/05 05:43:54;;;;;;;4.53;1.90;;;;;;;15.11;100.00;101998.78;6253127;28;20465;-72
2023/09/05 05:46:56;;;;;;;5.65;2.10;;;;;;;15.09;100.00;101992.72;6252880;28;20049;-72
2023/09/05 05:49:58;;;;;;;3.05;2.15;;;;;;;15.12;100.00;101997.84;6253007;28;20046;-72
2023/09/05 05:52:59;;;;;;;2.88;2.25;;;;;;;15.16;100.00;101996.75;6252793;28;20053;-72
2023/09/05 05:56:02;;;;;;;3.85;2.35;;;;;;;15.17;100.00;101993.19;6252652;28;20052;-73
2023/09/05 05:59:05;;;;;;;3.20;2.22;;;;;;;15.28;100.00;101989.94;6252883;28;20053;-73
2023/09/05 06:02:07;;;;;;;5.25;2.83;;;;;;;15.33;100.00;102000.31;6253013;28;20057;-72
2023/09/05 06:05:09;;;;;;;4.60;2.15;;;;;;;15.38;100.00;101992.97;6252274;28;20072;-72
2023/09/05 06:08:10;;;;;;;4.57;1.90;;;;;;;15.40;100.00;101994.59;6252636;28;20045;-72
2023/09/05 06:11:12;;;;;;;3.47;2.10;;;;;;;15.42;100.00;101986.56;6252378;28;20574;-72
2023/09/05 06:14:15;;;;;;;5.72;1.90;;;;;;;15.48;100.00;101980.91;6252296;28;20446;-72
2023/09/05 06:17:16;;;;;;;2.92;1.80;;;;;;;15.55;100.00;101984.13;6268500;28;20073;-72
2023/09/05 06:20:19;;;;;;;5.25;2.00;;;;;;;15.60;100.00;101976.75;6277075;28;20049;-71
2023/09/05 06:23:20;;;;;;;3.83;2.53;;;;;;;15.66;100.00;101979.09;6276972;28;20060;-73
2023/09/05 06:26:21;;;;;;;7.18;2.03;;;;;;;15.76;100.00;101982.09;6276684;28;20049;-73
2023/09/05 06:29:24;;;;;;;12.93;5.07;;;;;;;15.81;100.00;101972.97;6277064;28;20049;-73
2023/09/05 06:32:26;;;;;;;7.20;3.50;;;;;;;15.82;100.00;101979.13;6276812;28;20052;-72
2023/09/05 06:35:27;;;;;;;4.60;2.85;;;;;;;15.92;100.00;101977.66;6282872;28;20056;-73
2023/09/05 06:38:29;;;;;;;3.88;2.72;;;;;;;15.90;100.00;101979.56;6293006;28;20051;-73
2023/09/05 06:41:30;;;;;;;4.68;2.80;;;;;;;15.94;100.00;101974.00;6292942;28;20467;-73
2023/09/05 06:44:33;;;;;;;4.60;2.10;;;;;;;16.07;100.00;101974.13;6286290;28;20431;-73
2023/09/05 06:47:35;;;;;;;3.28;2.10;;;;;;;16.15;100.00;101976.34;6291829;28;20044;-73
2023/09/05 06:50:36;;;;;;;2.78;2.03;;;;;;;16.20;100.00;101974.28;6278523;28;20059;-73
2023/09/05 06:53:37;;;;;;;3.42;2.10;;;;;;;16.28;100.00;101963.25;6292446;28;20052;-73
2023/09/05 06:56:39;;;;;;;2.63;1.73;;;;;;;16.33;100.00;101966.50;6289612;28;20152;-73
2023/09/05 06:59:41;;;;;;;1.90;1.63;;;;;;;16.40;100.00;101965.19;6292532;28;20049;-73
2023/09/05 07:02:43;;;;;;;5.32;1.67;;;;;;;16.47;100.00;101956.78;6300859;28;20056;-73
2023/09/05 07:05:45;;;;;;;4.28;1.88;;;;;;;16.53;100.00;101962.66;6300322;28;20056;-73
2023/09/05 07:08:47;;;;;;;2.75;2.08;;;;;;;16.61;100.00;101963.91;6297991;28;20068;-73
2023/09/05 07:11:48;;;;;;;6.85;2.10;;;;;;;16.64;100.00;101958.44;6291934;28;20045;-73
2023/09/05 07:14:52;;;;;;;3.25;2.35;;;;;;;16.76;100.00;101963.97;6300322;28;20049;-73
2023/09/05 07:17:53;;;;;;;14.43;7.10;;;;;;;16.86;100.00;101957.19;6300379;28;20456;-73
2023/09/05 07:20:55;;;;;;;4.72;2.50;;;;;;;17.00;100.00;101951.91;6300456;28;20445;-73
2023/09/05 07:23:56;;;;;;;3.20;2.05;;;;;;;17.10;100.00;101955.69;6297025;28;20437;-73
2023/09/05 07:26:58;;;;;;;2.28;1.55;;;;;;;17.17;100.00;101956.19;6294724;28;20053;-73
2023/09/05 07:30:00;;;;;;;2.80;1.65;;;;;;;17.22;100.00;101957.59;6300408;28;20048;-73
2023/09/05 07:33:03;;;;;;;2.10;1.65;;;;;;;17.49;100.00;101957.69;6300443;28;20138;-73
2023/09/05 07:36:05;;;;;;;3.75;1.70;;;;;;;17.65;100.00;101964.66;6300209;28;20053;-74
2023/09/05 07:39:06;;;;;;;2.17;1.60;;;;;;;17.74;100.00;101967.63;6300451;28;20349;-73
2023/09/05 07:42:08;;;;;;;3.30;1.50;;;;;;;17.83;100.00;101970.66;6300438;28;20049;-74
2023/09/05 07:45:11;;;;;;;2.28;1.60;;;;;;;17.96;100.00;101974.22;6299818;28;20048;-74
2023/09/05 07:48:13;;;;;;;6.97;2.00;;;;;;;18.04;100.00;101973.75;6300236;28;20044;-74
2023/09/05 07:51:15;;;;;;;2.05;1.65;;;;;;;18.09;100.00;101972.47;6298357;28;20052;-74
2023/09/05 07:54:17;;;;;;;2.08;1.55;;;;;;;18.18;100.00;101979.84;6296902;28;20048;-74
2023/09/05 07:57:18;;;;;;;3.35;1.73;;;;;;;18.32;100.00;101981.59;6308061;28;20045;-73
2023/09/05 08:00:21;;;;;;;1.60;1.45;;;;;;;18.51;100.00;101986.56;6308394;28;20055;-74
2023/09/05 08:03:25;;;;;;;1.58;1.40;;;;;;;18.61;100.00;101984.97;6308166;28;20055;-74
2023/09/05 08:06:26;;;;;;;3.85;1.73;;;;;;;18.64;100.00;101990.09;6307714;28;20465;-73
2023/09/05 08:09:27;;;;;;;3.28;1.67;;;;;;;18.67;100.00;101981.91;6308071;28;20048;-74
2023/09/05 08:12:29;;;;;;;2.35;1.23;;;;;;;18.68;100.00;101988.09;6308064;28;20048;-74
2023/09/05 08:15:31;;;;;;;1.55;1.30;;;;;;;18.76;100.00;101983.13;6307425;28;20048;-74
2023/09/05 08:18:33;;;;;;;2.30;1.40;;;;;;;18.82;100.00;101982.72;6307935;28;20055;-74
2023/09/05 08:21:35;;;;;;;1.27;1.00;;;;;;;18.85;100.00;101974.50;6307859;28;20055;-74
2023/09/05 08:24:36;;;;;;;4.25;1.45;;;;;;;18.98;100.00;101970.03;6307589;28;20048;-74
2023/09/05 08:27:38;;;;;;;4.03;2.22;;;;;;;19.09;100.00;101971.09;6307772;28;20118;-73
2023/09/05 08:30:40;;;;;;;3.67;1.40;;;;;;;19.26;100.00;101971.63;6308161;28;20048;-73
2023/09/05 08:33:42;;;;;;;4.82;1.25;;;;;;;19.43;100.00;101969.56;6308147;28;20048;-73
2023/09/05 08:36:43;;;;;;;2.13;1.20;;;;;;;19.47;100.00;101977.25;6307307;28;20462;-73
2023/09/05 08:39:45;;;;;;;2.30;1.48;;;;;;;19.52;100.00;101972.44;6307809;28;20075;-74
2023/09/05 08:42:47;;;;;;;1.73;1.10;;;;;;;19.51;100.00;101978.72;6307427;28;20056;-74
2023/09/05 08:45:52;;;;;;;3.65;1.27;;;;;;;19.53;100.00;101973.31;6307391;28;20424;-73
2023/09/05 08:48:54;;;;;;;1.25;0.90;;;;;;;19.68;100.00;101977.56;6307525;28;20047;-74
2023/09/05 08:51:57;;;;;;;2.20;1.33;;;;;;;19.74;100.00;101982.44;6307542;28;20455;-74
2023/09/05 08:55:02;;;;;;;2.72;1.40;;;;;;;19.77;100.00;101970.72;6307504;28;20051;-75
2023/09/05 08:58:04;;;;;;;2.92;1.35;;;;;;;19.87;100.00;101974.41;6296108;28;20127;-73
2023/09/05 09:01:07;;;;;;;5.13;1.30;;;;;;;19.98;100.00;101963.81;6281548;28;20344;-73
2023/09/05 09:04:08;;;;;;;1.38;1.25;;;;;;;20.31;100.00;101964.94;6279423;28;20072;-73
2023/09/05 09:07:10;;;;;;;1.60;1.23;;;;;;;20.49;100.00;101966.25;6272090;28;20130;-73
2023/09/05 09:10:20;;;;;;;1.73;1.10;;;;;;;20.44;100.00;101965.72;6278490;28;20203;-74
2023/09/05 09:13:23;;;;;;;2.38;1.33;;;;;;;20.48;100.00;101961.88;6278485;28;20071;-74
2023/09/05 09:16:26;;;;;;;1.98;1.02;;;;;;;20.57;100.00;101959.44;6278461;28;20045;-73
2023/09/05 09:19:29;;;;;;;1.98;1.30;;;;;;;20.76;100.00;101965.09;6278558;28;20052;-73
2023/09/05 09:22:30;;;;;;;2.03;1.25;;;;;;;21.04;100.00;101966.50;6286681;28;20052;-73
2023/09/05 09:25:33;;;;;;;3.33;1.70;;;;;;;21.16;100.00;101962.81;6279448;28;20057;-73
2023/09/05 09:28:37;;;;;;;2.28;1.20;;;;;;;21.11;100.00;101953.47;6274538;28;20048;-73
2023/09/05 09:31:40;;;;;;;1.33;1.23;;;;;;;21.15;100.00;101942.41;6278541;28;20055;-73
2023/09/05 09:34:41;;;;;;;3.05;1.58;;;;;;;21.17;100.00;101943.16;6278145;28;20049;-73
2023/09/05 09:37:45;;;;;;;1.98;1.27;;;;;;;21.18;100.00;101942.19;6277783;28;20052;-73
2023/09/05 09:40:47;;;;;;;3.28;1.40;;;;;;;21.21;100.00;101947.31;6286196;28;20153;-72
2023/09/05 09:43:55;;;;;;;1.85;1.00;;;;;;;21.35;100.00;101942.69;6295440;28;20055;-72
2023/09/05 09:46:58;;;;;;;3.53;1.10;;;;;;;21.36;100.00;101944.41;6302229;28;20071;-73
2023/09/05 09:50:02;;;;;;;2.55;1.08;;;;;;;21.45;100.00;101946.34;6302412;28;20052;-73
2023/09/05 09:53:05;;;;;;;3.60;1.50;;;;;;;21.69;100.00;101941.69;6302505;28;20075;-73
2023/09/05 09:56:11;;;;;;;3.58;1.02;;;;;;;21.89;100.00;101936.50;6302084;28;20048;-73
2023/09/05 09:59:18;;;;;;;2.15;1.42;;;;;;;22.02;100.00;101927.34;6302184;28;20369;-72
2023/09/05 10:02:21;;;;;;;2.75;1.40;;;;;;;22.20;100.00;101921.47;6286530;28;20179;-72
2023/09/05 10:05:24;;;;;;;1.88;1.08;;;;;;;22.21;100.00;101918.69;6299515;28;20055;-72
2023/09/05 10:08:28;;;;;;;1.33;1.17;;;;;;;22.38;100.00;101925.25;6299553;28;20044;-72
2023/09/05 10:11:31;;;;;;;1.73;1.08;;;;;;;22.48;100.00;101914.63;6292414;28;20471;-72
2023/09/05 10:14:34;;;;;;;2.22;1.30;;;;;;;22.59;100.00;101916.41;6301640;28;20053;-78
2023/09/05 10:17:38;;;;;;;1.25;0.85;;;;;;;22.59;100.00;101924.44;6301947;28;20060;-77
2023/09/05 10:20:41;;;;;;;1.80;0.90;;;;;;;22.83;100.00;101911.59;6300440;28;20064;-71
2023/09/05 10:23:43;;;;;;;1.95;1.05;;;;;;;22.96;100.00;101914.09;6276910;28;20052;-71
2023/09/05 10:26:45;;;;;;;1.30;0.95;;;;;;;22.99;100.00;101905.78;6276958;28;20045;-72
2023/09/05 10:29:47;;;;;;;1.88;1.33;;;;;;;23.00;100.00;101902.13;6276572;28;20216;-72
2023/09/05 10:32:53;;;;;;;5.28;3.55;;;;;;;22.96;100.00;101898.84;6276625;28;20429;-72
2023/09/05 10:35:55;;;;;;;2.33;1.17;;;;;;;23.06;100.00;101909.63;6275306;28;20049;-73
2023/09/05 10:38:57;;;;;;;1.52;0.93;;;;;;;23.21;100.00;101900.22;6274432;28;20045;-73
2023/09/05 10:41:58;;;;;;;1.90;1.13;;;;;;;23.38;100.00;101897.88;6275291;28;20052;-72
2023/09/05 10:45:17;;;;;;;2.72;0.98;;;;;;;23.39;100.00;101900.44;6277310;28;20060;-73
2023/09/05 10:48:33;;;;;;;1.88;0.90;;;;;;;23.45;100.00;101891.81;6282597;28;20044;-71
2023/09/05 10:51:35;;;;;;;1.25;1.10;;;;;;;23.54;100.00;101884.78;6281911;28;20360;-74
2023/09/05 10:54:36;;;;;;;1.00;0.85;;;;;;;23.80;100.00;101885.13;6284663;28;20049;-73
2023/09/05 10:57:40;;;;;;;1.95;1.13;;;;;;;23.78;100.00;101882.56;6282135;28;20047;-74
2023/09/05 11:00:41;;;;;;;1.52;0.90;;;;;;;23.89;100.00;101886.09;6278002;28;20434;-74
2023/09/05 11:03:46;;;;;;;1.35;1.08;;;;;;;24.14;100.00;101876.66;6285371;28;20131;-74
2023/09/05 11:07:02;;;;;;;1.75;1.10;;;;;;;24.44;100.00;101868.44;6278944;28;20433;-74
2023/09/05 11:10:04;;;;;;;1.52;1.13;;;;;;;24.66;100.00;101867.22;6267050;28;20064;-74
2023/09/05 11:13:08;;;;;;;1.75;1.08;;;;;;;24.80;100.00;101866.78;6280863;28;20048;-73
2023/09/05 11:16:09;;;;;;;0.70;0.70;;;;;;;24.85;100.00;101868.19;6288922;28;20052;-74
2023/09/05 11:19:12;;;;;;;1.70;0.88;;;;;;;24.93;100.00;101869.09;6290758;28;20369;-74
2023/09/05 11:22:21;;;;;;;1.60;0.90;;;;;;;25.10;100.00;101867.50;6277666;28;20056;-74
2023/09/05 11:25:22;;;;;;;0.85;0.80;;;;;;;25.41;100.00;101868.03;6284595;28;20045;-74
2023/09/05 11:28:25;;;;;;;1.30;0.90;;;;;;;25.59;100.00;101864.53;6289137;28;20049;-73
2023/09/05 11:31:27;;;;;;;2.55;1.17;;;;;;;25.73;100.00;101861.31;6293962;28;20051;-74
2023/09/05 11:34:30;;;;;;;1.02;0.82;;;;;;;26.02;100.00;101859.22;6284928;28;20128;-74
2023/09/05 11:37:32;;;;;;;1.33;0.70;;;;;;;26.28;100.00;101853.88;6298858;28;20591;-72
2023/09/05 11:40:35;;;;;;;1.35;1.00;;;;;;;26.44;100.00;101855.88;6296935;28;20068;-72
2023/09/05 11:43:45;;;;;;;1.60;0.80;;;;;;;26.84;100.00;101850.84;6292170;28;20356;-72
2023/09/05 11:46:46;;;;;;;0.50;0.50;;;;;;;27.12;72.22;101849.69;6299904;28;20055;-72
2023/09/05 11:49:50;;;;;;;1.10;0.63;;;;;;;27.42;66.93;101847.38;6290354;28;20041;-72
2023/09/05 11:52:52;;;;;;;0.98;0.60;;;;;;;27.65;65.50;101842.19;6300088;28;20053;-73
2023/09/05 11:55:54;;;;;;;0.60;0.60;;;;;;;27.91;64.12;101842.91;6299838;28;20052;-73
2023/09/05 11:58:55;;;;;;;1.40;0.63;;;;;;;28.29;61.77;101841.34;6266170;28;20049;-73
2023/09/05 12:01:56;;;;;;;2.58;0.68;;;;;;;28.59;60.44;101836.25;6283610;28;20051;-73
2023/09/05 12:05:00;;;;;;;1.25;0.90;;;;;;;28.88;58.03;101834.81;6293704;28;20055;-73
2023/09/05 12:08:05;;;;;;;1.40;0.50;;;;;;;29.14;62.04;101829.13;6288234;28;20114;-73
2023/09/05 12:11:07;;;;;;;1.85;0.95;;;;;;;29.32;60.30;101829.69;6291305;28;20049;-73
2023/09/05 12:14:09;;;;;;;0.85;0.52;;;;;;;29.56;57.46;101834.97;6299641;28;20057;-73
2023/09/05 12:17:15;;;;;;;1.10;0.60;;;;;;;29.79;55.64;101828.72;6299313;28;20049;-73
2023/09/05 12:20:18;;;;;;;2.05;0.90;;;;;;;30.11;48.73;101819.44;6299800;28;20052;-73
2023/09/05 12:23:23;;;;;;;0.60;0.60;;;;;;;30.27;50.06;101821.19;6299724;28;20048;-73
2023/09/05 12:26:39;;;;;;;0.43;0.43;;;;;;;30.32;47.29;101825.03;6299697;28;20056;-73
2023/09/05 12:29:41;;;;;;;0.80;0.50;;;;;;;30.48;50.13;101820.47;6299739;28;20095;-73
2023/09/05 12:32:43;;;;;;;0.95;0.65;;;;;;;30.50;49.99;101818.41;6289209;28;20048;-73
2023/09/05 12:35:46;;;;;;;1.73;0.85;;;;;;;30.66;45.41;101811.94;6299458;28;20449;-73
2023/09/05 12:38:47;;;;;;;0.40;0.40;;;;;;;30.78;45.49;101810.47;6302555;28;20048;-73
2023/09/05 12:41:50;;;;;;;1.48;0.75;;;;;;;30.83;46.28;101811.56;6296778;28;20052;-73
2023/09/05 12:44:52;;;;;;;0.70;0.50;;;;;;;30.93;46.16;101805.00;6286712;28;20361;-73
2023/09/05 12:47:54;;;;;;;1.70;0.70;;;;;;;31.10;44.60;101803.75;6283104;28;20076;-72
2023/09/05 12:50:57;;;;;;;0.95;0.68;;;;;;;31.36;45.34;101805.94;6295240;28;20048;-73
2023/09/05 12:54:00;;;;;;;0.57;0.40;;;;;;;31.59;44.71;101797.59;6295513;28;20432;-73
2023/09/05 12:57:04;;;;;;;1.80;0.50;;;;;;;31.60;44.59;101791.13;6303545;28;20063;-74
2023/09/05 13:00:07;;;;;;;0.77;0.70;;;;;;;31.61;45.19;101790.09;6303674;28;20137;-74
2023/09/05 13:03:10;;;;;;;0.50;0.50;;;;;;;31.53;42.89;101785.66;6291145;28;20158;-74
2023/09/05 13:06:13;;;;;;;1.30;0.75;;;;;;;31.67;43.40;101785.75;6303257;28;20061;-74
2023/09/05 13:09:14;;;;;;;0.40;0.32;;;;;;;31.66;41.68;101786.78;6303395;28;20457;-74
2023/09/05 13:12:16;;;;;;;0.90;0.70;;;;;;;31.95;43.00;101781.22;6294839;28;20056;-74
2023/09/05 13:15:18;;;;;;;0.90;0.50;;;;;;;32.10;43.86;101783.81;6299306;28;20048;-74
2023/09/05 13:18:19;;;;;;;1.58;0.57;;;;;;;32.19;41.39;101779.06;6303457;28;20045;-74
2023/09/05 13:21:22;;;;;;;0.40;0.30;;;;;;;32.35;42.98;101767.88;6303344;28;20057;-74
2023/09/05 13:24:24;;;;;;;3.03;0.52;;;;;;;32.48;41.77;101769.88;6303141;28;20602;-74
2023/09/05 13:27:26;;;;;;;0.65;0.52;;;;;;;32.51;40.53;101772.16;6303115;28;20052;-74
2023/09/05 13:30:27;;;;;;;2.28;1.33;;;;;;;32.53;40.75;101770.09;6288544;28;20045;-74
2023/09/05 13:33:29;;;;;;;2.92;0.63;;;;;;;32.45;41.14;101767.53;6294603;28;20048;-74
2023/09/05 13:36:32;;;;;;;0.65;0.40;;;;;;;32.68;40.92;101778.13;6302769;28;20133;-75
2023/09/05 13:39:33;;;;;;;1.10;0.60;;;;;;;32.75;39.85;101768.94;6302550;28;20052;-74
2023/09/05 13:42:35;;;;;;;0.80;0.63;;;;;;;32.86;39.49;101780.28;6301685;28;20057;-75
2023/09/05 13:45:36;;;;;;;0.80;0.40;;;;;;;32.77;38.18;101768.72;6295347;28;20591;-74
2023/09/05 13:48:37;;;;;;;0.50;0.50;;;;;;;33.01;39.73;101765.47;6287656;28;20041;-74
2023/09/05 13:51:40;;;;;;;0.47;0.40;;;;;;;33.04;39.44;101761.50;6284073;28;20049;-74
2023/09/05 13:54:41;;;;;;;0.60;0.40;;;;;;;32.99;39.29;101769.47;6271150;28;20046;-72
2023/09/05 13:57:48;;;;;;;0.35;0.35;;;;;;;33.11;39.00;101762.34;6289266;28;20056;-73
2023/09/05 14:00:51;;;;;;;0.30;0.30;;;;;;;33.12;37.22;101761.31;6277827;28;20441;-74